AYT weather

Antalya International Airport
Antalya, Antalya Province, Turkey

Public forecast

Using degrees Celsius for public forecast. Weather courtesy of forecast.io.

Current aviation weather report (METAR) for Antalya International Airport

Retrieved 2019/11/15 11:20 UTC (22 minutes ago):

LTAI 151120Z 34007KT 9999 -SHRA FEW020CB BKN030 16/15 Q1016 NOSIG RMK RWY18C 36007KT 320V050 RWY36R 36009KT 320V050 RWY18L 02009KT 340V050

Aviation forecast (TAF) for Antalya International Airport

Retrieved 2019/11/15 06:03 UTC (6 hours ago):

TAF LTAI 150440Z 1506/1606 34008KT 4000 TSRA SCT015CB BKN025 BECMG 1506/1509 9999 NSW FEW020CB BKN030 BECMG 1516/1520 SCT030 BECMG 1520/1524 CAVOK